Aviation Digital Data Service (ADDS)

Output produced by TAFs form (0232 UTC 23 January 2017)
found at http://aviationweather.gov/adds/tafs/
 
KTCS 222333Z 2300/2324 20009KT P6SM FEW250 
     FM230200 26005KT P6SM SCT250 
     FM230500 30006KT P6SM SCT250 
     FM231600 20005KT P6SM SCT250 
     FM232100 20012G22KT P6SM FEW120 SCT250